Time;durP1;ratioP1;P1;durP2;ratioP2;P2;SDS_P1;SDS_P2;PMS_P1;PMS_P2;Temp;Humidity;BMP_temperature;BMP_pressure;BME280_temperature;BME280_humidity;BME280_pressure;Samples;Min_cycle;Max_cycle;Signal;HPM_P1;HPM_P2
2024/03/30 00:00:45;;;;;;;3.58;3.28;;;11.70;99.90;;;;;;4994274;28;19941;-73
2024/03/30 00:03:12;;;;;;;3.95;3.55;;;11.70;99.90;;;;;;4977190;28;20046;-73
2024/03/30 00:05:38;;;;;;;3.92;3.53;;;11.70;99.90;;;;;;4979901;28;20066;-73
2024/03/30 00:08:04;;;;;;;1.77;1.63;;;11.60;99.90;;;;;;4996900;28;20042;-73
2024/03/30 00:10:31;;;;;;;4.15;2.92;;;11.60;99.90;;;;;;5013150;28;20479;-73
2024/03/30 00:12:58;;;;;;;3.35;3.03;;;11.50;99.90;;;;;;4980822;28;20104;-73
2024/03/30 00:15:28;;;;;;;4.40;3.03;;;11.60;99.90;;;;;;4980771;28;20061;-73
2024/03/30 00:17:57;;;;;;;3.38;2.17;;;11.40;99.90;;;;;;5013295;28;20038;-73
2024/03/30 00:20:23;;;;;;;1.92;1.63;;;11.40;99.90;;;;;;5012991;28;20064;-73
2024/03/30 00:22:50;;;;;;;3.22;2.83;;;11.30;99.90;;;;;;4996900;28;20482;-74
2024/03/30 00:25:16;;;;;;;4.85;2.92;;;11.30;99.90;;;;;;4997126;28;20072;-73
2024/03/30 00:27:43;;;;;;;2.20;2.00;;;11.30;99.90;;;;;;4996769;28;20042;-73
2024/03/30 00:30:09;;;;;;;6.00;3.40;;;11.30;99.90;;;;;;4996940;28;20065;-73
2024/03/30 00:32:35;;;;;;;2.53;2.33;;;11.30;99.90;;;;;;4996895;28;20057;-73
2024/03/30 00:35:02;;;;;;;2.97;2.67;;;11.40;99.90;;;;;;4996560;28;20050;-73
2024/03/30 00:37:28;;;;;;;4.28;2.85;;;11.40;99.90;;;;;;4980266;28;20042;-73
2024/03/30 00:39:54;;;;;;;3.03;2.72;;;11.40;99.90;;;;;;5012906;28;20513;-73
2024/03/30 00:42:20;;;;;;;1.42;1.33;;;11.40;99.90;;;;;;5012667;28;20045;-73
2024/03/30 00:44:46;;;;;;;3.15;2.50;;;11.40;99.90;;;;;;4964155;28;20046;-73
2024/03/30 00:47:12;;;;;;;2.70;2.50;;;11.40;99.90;;;;;;4995872;28;20384;-73
2024/03/30 00:49:38;;;;;;;2.60;1.92;;;11.40;99.90;;;;;;5012388;28;20042;-73
2024/03/30 00:52:04;;;;;;;2.22;2.00;;;11.40;99.90;;;;;;5012640;28;20073;-73
2024/03/30 00:54:30;;;;;;;2.30;1.70;;;11.40;99.90;;;;;;4995986;28;20038;-73
2024/03/30 00:56:56;;;;;;;1.83;1.40;;;11.40;99.90;;;;;;4996468;28;20050;-73
2024/03/30 00:59:22;;;;;;;3.00;2.33;;;11.40;99.90;;;;;;4980113;28;20045;-73
2024/03/30 01:01:48;;;;;;;3.95;2.88;;;11.40;99.90;;;;;;5012533;28;20042;-73
2024/03/30 01:04:15;;;;;;;2.83;2.63;;;11.40;99.90;;;;;;5012536;28;20042;-73
2024/03/30 01:06:42;;;;;;;3.88;2.25;;;11.40;99.90;;;;;;4979622;28;20519;-73
2024/03/30 01:09:09;;;;;;;3.22;2.78;;;11.40;99.90;;;;;;4996071;28;20435;-73
2024/03/30 01:11:36;;;;;;;1.88;1.35;;;11.40;99.90;;;;;;4979599;28;20400;-73
2024/03/30 01:14:06;;;;;;;2.83;2.53;;;11.40;99.90;;;;;;5012258;28;20046;-73
2024/03/30 01:16:32;;;;;;;2.85;2.40;;;11.30;99.90;;;;;;5011891;28;20078;-73
2024/03/30 01:18:59;;;;;;;2.33;2.13;;;11.30;99.90;;;;;;4995643;28;20554;-73
2024/03/30 01:21:25;;;;;;;2.30;2.08;;;11.30;99.90;;;;;;4995695;28;20050;-73
2024/03/30 01:23:52;;;;;;;4.97;2.42;;;11.30;99.90;;;;;;4995802;28;20084;-74
2024/03/30 01:26:19;;;;;;;4.05;3.63;;;11.30;99.90;;;;;;4963376;28;20161;-73
2024/03/30 01:28:46;;;;;;;4.10;2.58;;;11.30;99.90;;;;;;4995387;28;20042;-73
2024/03/30 01:31:13;;;;;;;4.05;2.92;;;11.20;99.90;;;;;;4979536;28;20038;-73
2024/03/30 01:33:40;;;;;;;5.20;3.00;;;11.20;99.90;;;;;;4995441;28;20048;-73
2024/03/30 01:36:07;;;;;;;3.05;2.75;;;11.10;99.90;;;;;;4995387;28;20057;-73
2024/03/30 01:38:34;;;;;;;2.85;2.55;;;11.10;99.90;;;;;;5011675;28;20492;-74
2024/03/30 01:41:00;;;;;;;3.47;2.90;;;11.10;99.90;;;;;;4995398;28;20522;-73
2024/03/30 01:43:26;;;;;;;3.35;2.50;;;11.00;99.90;;;;;;4979550;28;20050;-73
2024/03/30 01:45:55;;;;;;;5.35;2.63;;;11.00;99.90;;;;;;4995233;28;20158;-73
2024/03/30 01:48:22;;;;;;;4.15;3.42;;;11.00;99.90;;;;;;4995398;28;20379;-73
2024/03/30 01:50:48;;;;;;;2.47;2.13;;;11.00;99.90;;;;;;4979081;28;20050;-73
2024/03/30 01:53:18;;;;;;;3.70;2.88;;;11.00;99.90;;;;;;5011664;28;20549;-73
2024/03/30 01:55:46;;;;;;;8.27;2.83;;;11.00;99.90;;;;;;4995080;28;20480;-73
2024/03/30 01:58:16;;;;;;;2.92;2.53;;;11.00;99.90;;;;;;4994901;28;20041;-73
2024/03/30 02:00:42;;;;;;;3.25;2.95;;;11.00;99.90;;;;;;5010871;28;20050;-73
2024/03/30 02:03:08;;;;;;;4.10;2.92;;;11.00;99.90;;;;;;4978970;28;20503;-73
2024/03/30 02:05:35;;;;;;;2.63;1.55;;;11.00;99.90;;;;;;4962525;28;20050;-73
2024/03/30 02:08:03;;;;;;;3.70;2.88;;;11.00;99.90;;;;;;5011602;28;20038;-73
2024/03/30 02:10:30;;;;;;;3.05;2.75;;;10.90;99.90;;;;;;4979007;28;20088;-73
2024/03/30 02:12:56;;;;;;;2.88;2.10;;;10.90;99.90;;;;;;5011292;28;20041;-73
2024/03/30 02:15:23;;;;;;;2.08;1.92;;;10.90;99.90;;;;;;4978943;28;20503;-73
2024/03/30 02:17:49;;;;;;;3.08;2.63;;;11.00;99.90;;;;;;5011215;28;20038;-73
2024/03/30 02:20:15;;;;;;;3.67;3.10;;;10.90;99.90;;;;;;4994978;28;20510;-73
2024/03/30 02:22:51;;;;;;;4.55;2.72;;;10.90;99.90;;;;;;4994935;28;20046;-73
2024/03/30 02:25:22;;;;;;;3.22;2.85;;;10.90;99.90;;;;;;4994877;28;20396;-73
2024/03/30 02:27:49;;;;;;;5.38;3.85;;;10.90;99.90;;;;;;5011093;28;20046;-73
2024/03/30 02:30:28;;;;;;;3.03;2.55;;;10.80;99.90;;;;;;5011339;28;20046;-73
2024/03/30 02:32:55;;;;;;;4.03;3.33;;;10.80;99.90;;;;;;5010962;28;20038;-73
2024/03/30 02:35:22;;;;;;;3.75;2.60;;;10.80;99.90;;;;;;4994870;28;20053;-73
2024/03/30 02:37:49;;;;;;;2.53;1.85;;;10.80;99.90;;;;;;5011016;28;20045;-73
2024/03/30 02:40:15;;;;;;;4.13;3.20;;;10.80;99.90;;;;;;5011186;28;20042;-73
2024/03/30 02:42:41;;;;;;;4.28;3.88;;;10.80;99.90;;;;;;5010934;28;20049;-73
2024/03/30 02:45:08;;;;;;;3.20;2.92;;;10.80;99.90;;;;;;5011172;28;20092;-73
2024/03/30 02:47:34;;;;;;;4.95;4.47;;;10.80;99.90;;;;;;5010999;28;20050;-73
2024/03/30 02:50:01;;;;;;;1.65;1.52;;;10.90;99.90;;;;;;4994589;28;20050;-73
2024/03/30 02:52:27;;;;;;;4.78;3.40;;;10.90;99.90;;;;;;4994807;28;20136;-73
2024/03/30 02:54:53;;;;;;;6.13;3.67;;;10.90;99.90;;;;;;5010932;28;20046;-73
2024/03/30 02:57:19;;;;;;;5.20;4.13;;;11.00;99.90;;;;;;4994660;28;20061;-73
2024/03/30 02:59:45;;;;;;;4.70;4.30;;;11.00;99.90;;;;;;4994580;28;20435;-73
2024/03/30 03:02:11;;;;;;;7.28;4.13;;;11.00;99.90;;;;;;5011033;28;20046;-73
2024/03/30 03:04:37;;;;;;;4.22;3.65;;;11.00;99.90;;;;;;4994774;28;20088;-73
2024/03/30 03:07:06;;;;;;;5.10;3.40;;;11.00;99.90;;;;;;4994460;28;20034;-73
2024/03/30 03:09:32;;;;;;;5.63;5.13;;;11.00;99.90;;;;;;5011007;28;20484;-72
2024/03/30 03:11:58;;;;;;;4.47;3.75;;;11.00;99.90;;;;;;5013815;28;20057;-73
2024/03/30 03:14:24;;;;;;;5.10;3.95;;;11.00;99.90;;;;;;4982207;28;20042;-73
2024/03/30 03:16:50;;;;;;;5.78;3.80;;;11.00;99.90;;;;;;4997895;28;20088;-73
2024/03/30 03:19:16;;;;;;;4.05;3.53;;;11.00;99.90;;;;;;4981807;28;20495;-73
2024/03/30 03:21:42;;;;;;;6.72;5.40;;;10.90;99.90;;;;;;4997782;28;20061;-73
2024/03/30 03:24:08;;;;;;;3.55;3.25;;;10.90;99.90;;;;;;5014517;28;20407;-73
2024/03/30 03:26:34;;;;;;;4.13;3.63;;;10.90;99.90;;;;;;4997726;28;20050;-73
2024/03/30 03:29:00;;;;;;;4.80;4.32;;;10.90;99.90;;;;;;5013878;28;20053;-73
2024/03/30 03:31:26;;;;;;;5.55;3.40;;;11.00;99.90;;;;;;5014154;28;20041;-73
2024/03/30 03:33:52;;;;;;;5.05;4.47;;;11.00;99.90;;;;;;4981577;28;20064;-73
2024/03/30 03:36:18;;;;;;;4.15;3.72;;;11.00;99.90;;;;;;5014208;28;20140;-73
2024/03/30 03:38:44;;;;;;;4.93;4.43;;;11.00;99.90;;;;;;5013905;28;20046;-73
2024/03/30 03:41:10;;;;;;;6.80;6.20;;;11.00;99.90;;;;;;4997606;28;20054;-73
2024/03/30 03:43:39;;;;;;;5.18;4.68;;;11.00;99.90;;;;;;5013956;28;20042;-73
2024/03/30 03:46:06;;;;;;;8.20;5.97;;;11.00;99.90;;;;;;5013534;28;20042;-73
2024/03/30 03:48:32;;;;;;;6.45;4.82;;;11.00;99.90;;;;;;5014199;28;20037;-73
2024/03/30 03:50:59;;;;;;;6.30;5.22;;;11.00;99.90;;;;;;5013453;28;20049;-73
2024/03/30 03:53:25;;;;;;;7.32;6.20;;;11.00;99.90;;;;;;5013754;28;20373;-73
2024/03/30 03:55:51;;;;;;;7.65;5.80;;;11.00;99.90;;;;;;4997372;28;20034;-73
2024/03/30 03:58:17;;;;;;;7.68;6.25;;;11.00;99.90;;;;;;4997640;28;20502;-73
2024/03/30 04:00:43;;;;;;;6.35;5.70;;;11.00;99.90;;;;;;4994480;28;20085;-73
2024/03/30 04:03:09;;;;;;;7.13;5.90;;;10.90;99.90;;;;;;4977445;28;20046;-73
2024/03/30 04:05:36;;;;;;;7.40;5.30;;;10.90;99.90;;;;;;4992568;28;20050;-73
2024/03/30 04:08:02;;;;;;;9.70;6.95;;;10.90;99.90;;;;;;4993534;28;20050;-74
2024/03/30 04:10:28;;;;;;;6.18;5.57;;;10.90;99.90;;;;;;4978086;28;20050;-73
2024/03/30 04:12:54;;;;;;;5.30;4.72;;;10.90;99.90;;;;;;4977409;28;20096;-73
2024/03/30 04:15:20;;;;;;;4.15;3.75;;;10.90;99.90;;;;;;4993802;28;20045;-73
2024/03/30 04:17:49;;;;;;;4.07;3.72;;;10.80;99.90;;;;;;4977678;28;20439;-73
2024/03/30 04:20:15;;;;;;;5.00;3.85;;;10.90;99.90;;;;;;4993947;28;20084;-73
2024/03/30 04:22:41;;;;;;;4.63;3.90;;;10.80;99.90;;;;;;4992979;28;20062;-73
2024/03/30 04:25:07;;;;;;;8.55;5.75;;;10.80;99.90;;;;;;4993330;28;20089;-74
2024/03/30 04:27:34;;;;;;;6.95;5.20;;;10.80;99.90;;;;;;4993431;28;20088;-73
2024/03/30 04:30:00;;;;;;;7.32;5.78;;;10.80;99.90;;;;;;4993086;28;20541;-73
2024/03/30 04:32:25;;;;;;;9.13;7.93;;;10.70;99.90;;;;;;4993430;28;20499;-74
2024/03/30 04:34:52;;;;;;;8.00;6.47;;;10.70;99.90;;;;;;4993081;28;20035;-73
2024/03/30 04:37:18;;;;;;;10.15;7.18;;;10.60;99.90;;;;;;4993258;28;20401;-73
2024/03/30 04:39:44;;;;;;;7.70;5.47;;;10.60;99.90;;;;;;4993386;28;20061;-73
2024/03/30 04:42:10;;;;;;;10.35;7.18;;;10.70;99.90;;;;;;4993053;28;20054;-73
2024/03/30 04:44:36;;;;;;;9.88;8.65;;;10.40;99.90;;;;;;4993292;28;20042;-73
2024/03/30 04:47:03;;;;;;;7.13;6.40;;;10.40;99.90;;;;;;4992921;28;20054;-74
2024/03/30 04:49:29;;;;;;;5.63;4.70;;;10.40;99.90;;;;;;4976944;28;20050;-72
2024/03/30 04:51:55;;;;;;;9.73;8.75;;;10.30;99.90;;;;;;4993130;28;20428;-73
2024/03/30 04:54:21;;;;;;;10.40;7.38;;;10.30;99.90;;;;;;4976879;28;20069;-73
2024/03/30 04:56:47;;;;;;;7.30;6.07;;;10.30;99.90;;;;;;4992981;28;20034;-73
2024/03/30 04:59:13;;;;;;;8.50;7.60;;;10.30;99.90;;;;;;4992963;28;20038;-73
2024/03/30 05:01:40;;;;;;;6.47;5.90;;;10.30;99.90;;;;;;4992920;28;20081;-73
2024/03/30 05:04:06;;;;;;;10.50;8.40;;;10.30;99.90;;;;;;4992707;28;20042;-73
2024/03/30 05:06:32;;;;;;;8.48;6.75;;;10.20;99.90;;;;;;4960378;28;20400;-73
2024/03/30 05:08:58;;;;;;;9.35;6.93;;;10.20;99.90;;;;;;4976681;28;20084;-73
2024/03/30 05:11:24;;;;;;;9.63;8.63;;;10.20;99.90;;;;;;4992894;28;20128;-73
2024/03/30 05:13:51;;;;;;;11.77;9.38;;;10.20;99.90;;;;;;4976726;28;20042;-74
2024/03/30 05:16:17;;;;;;;5.72;5.25;;;10.20;99.90;;;;;;4976343;28;20050;-73
2024/03/30 05:18:43;;;;;;;7.47;5.75;;;10.20;99.90;;;;;;4992499;28;20054;-73
2024/03/30 05:21:09;;;;;;;3.92;3.53;;;10.20;99.90;;;;;;4992352;28;20043;-74
2024/03/30 05:23:36;;;;;;;9.40;7.60;;;10.20;99.90;;;;;;4992517;28;20049;-73
2024/03/30 05:26:06;;;;;;;10.82;7.63;;;10.20;99.90;;;;;;4992163;28;20506;-73
2024/03/30 05:28:35;;;;;;;7.90;6.63;;;10.20;99.90;;;;;;4976619;28;20049;-73
2024/03/30 05:31:10;;;;;;;8.27;7.47;;;10.10;99.90;;;;;;4992072;28;20062;-73
2024/03/30 05:33:36;;;;;;;8.55;7.53;;;10.10;99.90;;;;;;4992330;28;20042;-74
2024/03/30 05:36:02;;;;;;;9.13;6.93;;;10.10;99.90;;;;;;4992165;28;20065;-73
2024/03/30 05:38:28;;;;;;;9.27;6.63;;;10.10;99.90;;;;;;4976121;28;20046;-73
2024/03/30 05:40:55;;;;;;;5.13;3.95;;;10.10;99.90;;;;;;4992183;28;20058;-73
2024/03/30 05:43:22;;;;;;;7.10;6.38;;;10.10;99.90;;;;;;4975982;28;20046;-73
2024/03/30 05:45:55;;;;;;;10.35;7.18;;;10.10;99.90;;;;;;4976125;28;20054;-74
2024/03/30 05:48:21;;;;;;;7.53;6.72;;;10.10;99.90;;;;;;4991993;28;20042;-73
2024/03/30 05:50:47;;;;;;;7.22;6.53;;;10.10;99.90;;;;;;4976221;28;20426;-73
2024/03/30 05:53:13;;;;;;;8.30;6.82;;;10.10;99.90;;;;;;4991714;28;20061;-73
2024/03/30 05:55:40;;;;;;;7.38;5.78;;;10.10;99.90;;;;;;4975866;28;20474;-73
2024/03/30 05:58:09;;;;;;;7.65;6.20;;;10.10;99.90;;;;;;4991776;28;20046;-73
2024/03/30 06:00:36;;;;;;;7.07;6.00;;;10.10;99.90;;;;;;4993965;28;20038;-73
2024/03/30 06:03:03;;;;;;;9.70;7.82;;;10.20;99.90;;;;;;5011128;28;20053;-73
2024/03/30 06:05:30;;;;;;;7.38;6.40;;;10.20;99.90;;;;;;4978069;28;20042;-73
2024/03/30 06:07:57;;;;;;;7.95;7.07;;;10.20;99.90;;;;;;4995089;28;20038;-73
2024/03/30 06:10:23;;;;;;;7.32;6.63;;;10.20;99.90;;;;;;4995025;28;20415;-73
2024/03/30 06:12:49;;;;;;;9.10;7.97;;;10.20;99.90;;;;;;5011370;28;20541;-73
2024/03/30 06:15:15;;;;;;;9.68;7.97;;;10.30;99.90;;;;;;5011309;28;20124;-73
2024/03/30 06:17:41;;;;;;;6.53;5.18;;;10.30;99.90;;;;;;4994921;28;20446;-73
2024/03/30 06:20:08;;;;;;;10.00;8.70;;;10.30;99.90;;;;;;4995066;28;20050;-73
2024/03/30 06:22:36;;;;;;;9.68;6.90;;;10.30;99.90;;;;;;4994907;28;20049;-73
2024/03/30 06:25:03;;;;;;;8.00;6.38;;;10.30;99.90;;;;;;5011175;28;20407;-74
2024/03/30 06:27:31;;;;;;;7.88;6.95;;;10.40;99.90;;;;;;5011069;28;20439;-73
2024/03/30 06:29:57;;;;;;;8.95;7.47;;;10.40;99.90;;;;;;4978768;28;20038;-74
2024/03/30 06:32:23;;;;;;;8.25;7.03;;;10.40;99.90;;;;;;4994681;28;20030;-73
2024/03/30 06:34:50;;;;;;;7.82;6.90;;;10.40;99.90;;;;;;4978635;28;20052;-74
2024/03/30 06:37:16;;;;;;;7.88;6.10;;;10.50;99.90;;;;;;4994603;28;20038;-74
2024/03/30 06:45:12;;;;;;;8.13;7.18;;;10.50;99.90;;;;;;4981300;28;20056;-74
2024/03/30 06:47:39;;;;;;;9.00;8.10;;;10.50;99.90;;;;;;5014682;28;20046;-73
2024/03/30 06:50:06;;;;;;;7.93;6.97;;;10.50;99.90;;;;;;4982292;28;20041;-74
2024/03/30 06:52:32;;;;;;;7.80;6.78;;;10.40;99.90;;;;;;4998367;28;20065;-74
2024/03/30 06:54:57;;;;;;;8.70;6.40;;;10.40;99.90;;;;;;4998552;28;20073;-74
2024/03/30 06:57:23;;;;;;;7.55;6.72;;;10.40;99.90;;;;;;4998335;28;20046;-73
2024/03/30 06:59:49;;;;;;;8.07;7.30;;;10.40;99.90;;;;;;5014940;28;20068;-74
2024/03/30 07:02:17;;;;;;;3.50;3.20;;;10.40;99.90;;;;;;4998338;28;20553;-74
2024/03/30 07:04:43;;;;;;;7.05;6.35;;;10.50;99.90;;;;;;4998245;28;20046;-74
2024/03/30 07:07:09;;;;;;;7.45;5.80;;;10.50;99.90;;;;;;5014449;28;20042;-74
2024/03/30 07:09:35;;;;;;;8.15;6.32;;;10.60;99.90;;;;;;4965877;28;20391;-74
2024/03/30 07:12:01;;;;;;;10.70;7.03;;;10.70;99.90;;;;;;4981910;28;20132;-73
2024/03/30 07:14:27;;;;;;;7.22;5.97;;;10.80;99.90;;;;;;4997915;28;20045;-74
2024/03/30 07:16:55;;;;;;;6.78;6.10;;;10.90;99.90;;;;;;4981809;28;20057;-73
2024/03/30 07:19:22;;;;;;;7.95;7.22;;;11.00;99.90;;;;;;4997880;28;20050;-74
2024/03/30 07:21:48;;;;;;;9.23;6.93;;;11.10;99.90;;;;;;4997877;28;20050;-74
2024/03/30 07:24:15;;;;;;;7.93;5.35;;;11.30;99.90;;;;;;4981464;28;20050;-74
2024/03/30 07:26:41;;;;;;;8.13;6.13;;;11.30;99.90;;;;;;5014136;28;20046;-73
2024/03/30 07:29:07;;;;;;;6.70;5.75;;;11.40;99.90;;;;;;4997897;28;20170;-73
2024/03/30 07:31:33;;;;;;;7.55;6.35;;;11.50;99.90;;;;;;4997520;28;20050;-74
2024/03/30 07:33:59;;;;;;;7.00;6.30;;;11.70;99.90;;;;;;5014136;28;20041;-74
2024/03/30 07:36:25;;;;;;;8.07;5.50;;;11.80;99.90;;;;;;4997464;28;20054;-74
2024/03/30 07:38:51;;;;;;;6.10;5.50;;;11.90;99.90;;;;;;5014014;28;20038;-73
2024/03/30 07:41:17;;;;;;;7.72;6.95;;;12.10;99.90;;;;;;5013732;28;20196;-74
2024/03/30 07:43:43;;;;;;;6.15;5.32;;;12.20;99.90;;;;;;4997435;28;20046;-74
2024/03/30 07:46:09;;;;;;;7.28;5.43;;;12.30;99.90;;;;;;4997604;28;20049;-74
2024/03/30 07:48:35;;;;;;;8.80;6.15;;;12.30;99.90;;;;;;4997114;28;20038;-74
2024/03/30 07:51:02;;;;;;;6.00;5.45;;;12.40;99.90;;;;;;4997478;28;20049;-74
2024/03/30 07:53:28;;;;;;;7.85;5.78;;;12.50;99.90;;;;;;4997305;28;20041;-74
2024/03/30 07:55:54;;;;;;;5.15;4.65;;;12.70;99.90;;;;;;4981236;28;20507;-74
2024/03/30 07:58:20;;;;;;;4.65;4.25;;;12.80;99.90;;;;;;5012045;28;20100;-74
2024/03/30 08:00:46;;;;;;;5.72;4.75;;;13.00;99.90;;;;;;4997255;28;20129;-74
2024/03/30 08:03:12;;;;;;;5.57;4.80;;;13.10;99.90;;;;;;5013678;28;20116;-74
2024/03/30 08:05:38;;;;;;;5.18;4.68;;;13.20;99.90;;;;;;4996968;28;20041;-74
2024/03/30 08:08:05;;;;;;;4.65;4.18;;;13.30;99.90;;;;;;5013276;28;20500;-74
2024/03/30 08:10:31;;;;;;;4.95;4.53;;;13.40;99.90;;;;;;4996764;28;20100;-74
2024/03/30 08:12:57;;;;;;;7.03;5.43;;;13.60;99.90;;;;;;5013418;28;20475;-74
2024/03/30 08:15:23;;;;;;;5.82;4.80;;;13.90;99.90;;;;;;4996750;28;20054;-73
2024/03/30 08:17:49;;;;;;;5.03;4.15;;;14.10;99.90;;;;;;4980820;28;20042;-74
2024/03/30 08:20:15;;;;;;;5.85;4.78;;;14.30;99.90;;;;;;4996949;28;20037;-74
2024/03/30 08:22:41;;;;;;;4.72;4.18;;;14.50;99.90;;;;;;5012961;28;20038;-74
2024/03/30 08:25:08;;;;;;;6.43;5.10;;;14.60;99.90;;;;;;5013084;28;20052;-73
2024/03/30 08:27:34;;;;;;;5.20;4.70;;;14.60;99.90;;;;;;5012786;28;20034;-74
2024/03/30 08:30:04;;;;;;;6.55;5.70;;;14.70;99.90;;;;;;4980427;28;20046;-73
2024/03/30 08:32:30;;;;;;;6.32;5.00;;;14.70;99.90;;;;;;5012666;28;20115;-73
2024/03/30 08:34:56;;;;;;;4.70;4.20;;;14.70;99.90;;;;;;4980043;28;20512;-74
2024/03/30 08:37:23;;;;;;;6.00;4.95;;;14.80;99.90;;;;;;4996606;28;20100;-74
2024/03/30 08:39:49;;;;;;;9.23;4.90;;;14.90;99.90;;;;;;5012748;28;20061;-74
2024/03/30 08:42:15;;;;;;;5.82;4.75;;;15.00;99.90;;;;;;4980163;28;20057;-74
2024/03/30 08:44:41;;;;;;;5.70;5.10;;;15.10;99.90;;;;;;4996282;28;20049;-73
2024/03/30 08:47:07;;;;;;;4.38;3.97;;;15.10;99.90;;;;;;5012581;28;20070;-74
2024/03/30 08:49:33;;;;;;;5.90;4.65;;;15.20;99.90;;;;;;5012469;28;20125;-74
2024/03/30 08:51:59;;;;;;;6.22;4.22;;;15.20;99.90;;;;;;4996384;28;20038;-74
2024/03/30 08:54:25;;;;;;;4.15;3.75;;;15.20;99.90;;;;;;4996324;28;20526;-74
2024/03/30 08:56:51;;;;;;;4.97;4.55;;;15.30;99.90;;;;;;4963903;28;20049;-74
2024/03/30 08:59:17;;;;;;;4.78;4.40;;;15.40;99.90;;;;;;4979996;28;20057;-74
2024/03/30 09:01:45;;;;;;;4.88;4.00;;;15.50;99.90;;;;;;5012090;28;20384;-73
2024/03/30 09:04:11;;;;;;;3.75;3.35;;;15.50;99.90;;;;;;5012395;28;20471;-74
2024/03/30 09:06:37;;;;;;;5.57;4.82;;;15.50;99.90;;;;;;5012318;28;20104;-74
2024/03/30 09:09:03;;;;;;;3.97;3.63;;;15.50;99.90;;;;;;5012217;28;20104;-74
2024/03/30 09:11:29;;;;;;;4.40;4.00;;;15.60;99.90;;;;;;4995948;28;20042;-73
2024/03/30 09:13:55;;;;;;;4.10;3.70;;;15.80;99.90;;;;;;4979655;28;20522;-73
2024/03/30 09:16:21;;;;;;;3.58;3.10;;;15.90;99.90;;;;;;4995855;28;20129;-74
2024/03/30 09:18:47;;;;;;;3.72;3.40;;;15.80;99.20;;;;;;4979464;28;20049;-74
2024/03/30 09:21:13;;;;;;;3.60;3.00;;;15.60;99.70;;;;;;5012062;28;20061;-74
2024/03/30 09:23:39;;;;;;;4.22;3.83;;;15.40;99.40;;;;;;5011878;28;20439;-73
2024/03/30 09:26:05;;;;;;;3.72;3.42;;;15.10;99.90;;;;;;5011940;28;20053;-73
2024/03/30 09:28:31;;;;;;;4.18;3.78;;;15.00;99.90;;;;;;5011697;28;20042;-73
2024/03/30 09:30:57;;;;;;;3.88;3.50;;;15.10;99.90;;;;;;4995710;28;20096;-73
2024/03/30 09:33:23;;;;;;;3.40;3.08;;;15.40;99.90;;;;;;4995537;28;20399;-74
2024/03/30 09:35:49;;;;;;;4.72;3.28;;;15.70;99.90;;;;;;4978967;28;20052;-74
2024/03/30 09:38:15;;;;;;;6.03;4.07;;;15.90;99.50;;;;;;5011799;28;20046;-74
2024/03/30 09:40:51;;;;;;;4.22;3.58;;;16.00;99.20;;;;;;4995420;28;20431;-74
2024/03/30 09:43:18;;;;;;;3.60;3.30;;;16.20;99.20;;;;;;5011738;28;20038;-74
2024/03/30 09:45:45;;;;;;;3.15;2.58;;;16.20;98.30;;;;;;5011411;28;20056;-73
2024/03/30 09:48:13;;;;;;;4.00;3.70;;;16.10;98.10;;;;;;4995438;28;20080;-73
2024/03/30 09:50:40;;;;;;;2.85;2.65;;;16.20;96.80;;;;;;5011304;28;20045;-73
2024/03/30 09:53:07;;;;;;;6.60;3.95;;;16.30;97.60;;;;;;5011517;28;20491;-74
2024/03/30 09:55:35;;;;;;;3.22;2.92;;;16.80;97.90;;;;;;5011329;28;20480;-74
2024/03/30 09:58:02;;;;;;;4.25;3.67;;;17.40;97.80;;;;;;4978892;28;20042;-74
2024/03/30 10:00:28;;;;;;;4.40;4.00;;;17.90;95.80;;;;;;5011515;28;20443;-74
2024/03/30 10:02:54;;;;;;;4.18;3.40;;;18.00;94.20;;;;;;5011200;28;20042;-74
2024/03/30 10:05:20;;;;;;;4.00;3.70;;;18.20;95.00;;;;;;4978961;28;20120;-74
2024/03/30 10:08:02;;;;;;;3.53;3.22;;;18.50;94.40;;;;;;5011081;28;20053;-74
2024/03/30 10:10:29;;;;;;;4.60;4.03;;;18.70;93.40;;;;;;5011440;28;20411;-74
2024/03/30 10:13:04;;;;;;;4.70;3.75;;;19.00;92.90;;;;;;5011079;28;20049;-74
2024/03/30 10:15:39;;;;;;;4.47;4.03;;;19.20;93.40;;;;;;4978839;28;20049;-74
2024/03/30 10:18:05;;;;;;;3.75;3.50;;;19.60;92.90;;;;;;4995328;28;20034;-74
2024/03/30 10:20:32;;;;;;;3.35;3.05;;;19.70;91.60;;;;;;5012555;28;20054;-74
2024/03/30 10:22:58;;;;;;;4.55;2.85;;;19.70;91.90;;;;;;4999158;28;20046;-74
2024/03/30 10:25:25;;;;;;;4.07;3.72;;;19.90;91.60;;;;;;5015378;28;20129;-73
2024/03/30 10:27:52;;;;;;;3.63;3.20;;;19.90;90.40;;;;;;5014937;28;20053;-74
2024/03/30 10:30:18;;;;;;;4.35;3.90;;;19.60;91.70;;;;;;5015309;28;20373;-74
2024/03/30 10:32:45;;;;;;;4.80;3.45;;;19.60;91.50;;;;;;4982569;28;20045;-74
2024/03/30 10:35:15;;;;;;;7.70;3.75;;;19.40;90.80;;;;;;5015240;28;20480;-74
2024/03/30 10:37:41;;;;;;;5.05;2.85;;;18.60;91.40;;;;;;4998687;28;20486;-74
2024/03/30 10:40:08;;;;;;;7.63;3.83;;;18.20;92.30;;;;;;5014964;28;20483;-73
2024/03/30 10:42:35;;;;;;;3.50;3.08;;;18.00;92.40;;;;;;5014957;28;20041;-73
2024/03/30 10:45:04;;;;;;;5.18;3.58;;;17.90;92.60;;;;;;5014882;28;20050;-73
2024/03/30 10:47:30;;;;;;;12.70;3.17;;;17.70;93.00;;;;;;4998579;28;20054;-73
2024/03/30 10:49:57;;;;;;;6.05;3.42;;;17.50;93.40;;;;;;4998319;28;20046;-73
2024/03/30 10:52:27;;;;;;;5.60;2.40;;;17.50;92.90;;;;;;4998690;28;20084;-73
2024/03/30 10:54:54;;;;;;;5.43;2.97;;;17.30;93.50;;;;;;5014735;28;20042;-73
2024/03/30 10:57:22;;;;;;;9.75;3.75;;;17.10;93.10;;;;;;5014847;28;20054;-73
2024/03/30 10:59:49;;;;;;;9.48;2.88;;;16.90;93.30;;;;;;5014354;28;20054;-73
2024/03/30 11:02:23;;;;;;;8.63;2.97;;;16.90;93.10;;;;;;4998685;28;20438;-73
2024/03/30 11:04:53;;;;;;;5.15;2.90;;;16.90;93.40;;;;;;4998258;28;20046;-73
2024/03/30 11:07:21;;;;;;;6.68;2.60;;;16.90;93.40;;;;;;5014594;28;20045;-73
2024/03/30 11:09:47;;;;;;;7.18;2.95;;;16.90;93.10;;;;;;4998050;28;20049;-74
2024/03/30 11:12:14;;;;;;;4.53;2.78;;;17.20;93.50;;;;;;4982237;28;20050;-73
2024/03/30 11:14:41;;;;;;;10.10;2.97;;;17.50;93.00;;;;;;5014550;28;20518;-73
2024/03/30 11:17:20;;;;;;;3.47;2.05;;;17.60;92.40;;;;;;4997993;28;20038;-73
2024/03/30 11:20:03;;;;;;;8.32;2.78;;;17.70;92.70;;;;;;5014073;28;20096;-73
2024/03/30 11:23:04;;;;;;;9.40;3.63;;;17.80;92.10;;;;;;5014382;28;20068;-73
2024/03/30 11:25:34;;;;;;;12.73;3.95;;;17.70;91.80;;;;;;4993309;28;20062;-73
2024/03/30 11:28:29;;;;;;;4.82;2.35;;;17.70;92.30;;;;;;5014044;28;20045;-73
2024/03/30 11:31:15;;;;;;;9.73;3.13;;;17.60;92.40;;;;;;4997615;28;20045;-73
2024/03/30 11:34:02;;;;;;;6.22;3.53;;;18.00;92.50;;;;;;5014266;28;20104;-73
2024/03/30 11:36:55;;;;;;;7.68;3.30;;;18.40;91.60;;;;;;4997932;28;20046;-74
2024/03/30 11:39:29;;;;;;;7.45;3.00;;;19.00;91.10;;;;;;4997634;28;20046;-73
2024/03/30 11:42:25;;;;;;;7.75;2.85;;;19.40;90.60;;;;;;4997429;28;20582;-74
2024/03/30 11:44:53;;;;;;;10.65;3.65;;;19.40;90.00;;;;;;5013796;28;20380;-74
2024/03/30 11:47:19;;;;;;;10.45;3.20;;;19.10;89.70;;;;;;5013830;28;20041;-73
2024/03/30 11:49:46;;;;;;;7.75;2.85;;;18.70;90.10;;;;;;4981377;28;20042;-73
2024/03/30 11:52:12;;;;;;;11.38;2.78;;;18.40;90.70;;;;;;5013729;28;20038;-74
2024/03/30 11:54:38;;;;;;;12.40;3.38;;;18.30;91.00;;;;;;4997526;28;20034;-74
2024/03/30 11:57:11;;;;;;;7.82;3.05;;;18.20;91.30;;;;;;4981113;28;20055;-73
2024/03/30 11:59:49;;;;;;;6.95;2.33;;;18.10;91.30;;;;;;4997408;28;20049;-73
2024/03/30 12:02:15;;;;;;;3.40;2.47;;;18.10;91.50;;;;;;4997423;28;20085;-73
2024/03/30 12:04:44;;;;;;;7.28;2.25;;;18.00;91.70;;;;;;5013665;28;20045;-73
2024/03/30 12:07:10;;;;;;;6.88;2.30;;;18.00;91.80;;;;;;5013227;28;20138;-74
2024/03/30 12:09:37;;;;;;;4.32;1.90;;;17.90;91.80;;;;;;5013521;28;20034;-73
2024/03/30 12:12:10;;;;;;;6.53;2.63;;;17.90;92.00;;;;;;4996903;28;20046;-73
2024/03/30 12:14:40;;;;;;;12.00;2.67;;;17.80;91.80;;;;;;5013439;28;20057;-73
2024/03/30 12:17:06;;;;;;;9.60;3.42;;;17.70;92.20;;;;;;5013018;28;20522;-74
2024/03/30 12:19:34;;;;;;;14.32;3.05;;;17.70;92.30;;;;;;4996916;28;20475;-73
2024/03/30 12:22:01;;;;;;;9.73;2.63;;;17.80;92.40;;;;;;5012946;28;20054;-73
2024/03/30 12:24:27;;;;;;;4.30;1.90;;;17.80;92.20;;;;;;4996760;28;20050;-73
2024/03/30 12:26:54;;;;;;;6.03;2.45;;;17.70;92.50;;;;;;5012860;28;20049;-73
2024/03/30 12:29:21;;;;;;;5.32;1.92;;;17.70;92.50;;;;;;5013201;28;20046;-73
2024/03/30 12:31:47;;;;;;;9.27;2.05;;;17.60;92.70;;;;;;4996754;28;20042;-73
2024/03/30 12:34:14;;;;;;;12.80;3.08;;;17.60;92.30;;;;;;4980405;28;20042;-73
2024/03/30 12:36:42;;;;;;;10.93;3.38;;;17.70;92.50;;;;;;5012756;28;20050;-73
2024/03/30 12:39:08;;;;;;;16.23;2.95;;;17.60;92.30;;;;;;5012730;28;20165;-74
2024/03/30 12:41:34;;;;;;;11.48;3.22;;;17.60;92.50;;;;;;4996650;28;20037;-74
2024/03/30 12:44:06;;;;;;;5.53;3.28;;;17.60;92.40;;;;;;5011963;28;20400;-74
2024/03/30 12:46:36;;;;;;;8.07;2.30;;;17.70;92.50;;;;;;5012710;28;20042;-74
2024/03/30 12:49:03;;;;;;;6.75;1.33;;;17.80;92.60;;;;;;5012477;28;20049;-73
2024/03/30 12:51:34;;;;;;;7.65;1.73;;;17.90;92.40;;;;;;5012794;28;20030;-73